Weather at Prince Edward O.P.P. Helipad

Public forecast

Using degrees Celsius for public forecast. Weather courtesy of forecast.io.

Closest aviation weather report (METAR) to Prince Edward O.P.P. Helipad

Closest report is CFB Trenton, 16.4 nm (30.4 km) WNW.

2024/07/19 08:00 (retrieved 16 minutes ago)

CYTR 190800Z 32006KT 15SM SKC 15/13 A3010 RMK DENSITY ALT 325FT SLP192

Closest aviation forecast (TAF) to Prince Edward O.P.P. Helipad

Closest forecast is CFB Trenton, 16.4 nm (30.4 km) WNW.

2024/07/19 06:42 (retrieved 2 hours ago)

TAF CYTR 190540Z 1906/2006 VRB03KT P6SM SKC FM191600 22010KT P6SM FEW050 RMK NXT FCST BY 191200Z